Ages, Kentucky
Current Conditions -  °F | °C
As of 11:15 PM on Sunday 21 Dec 2014 (Local Time) from KI35 Reporting Station
Overcast Overcast  
Wind Chill: -3°   Ceiling: 3800
Heat Index:   Visibility: 10mi
Dew Point:   Wind: 8mph
Humidity: 93%   Direction: 100°E
Pressure: 30.11"   Gusts: NA
Location:  36.8576°N, 83.2467°W
Report Text: KI35 220415Z AUTO 10007KT 10SM OVC038 01/00 A3011 RMK AO1
Loading
Personal Weather Stations






























Interactive Weather Map New forecast layout! Learn more

10-Day Weather Forecast

Advertisements
Track Severe Weather on mobile